Time;durP1;ratioP1;P1;durP2;ratioP2;P2;SDS_P1;SDS_P2;PMS_P1;PMS_P2;Temp;Humidity;BMP_temperature;BMP_pressure;BME280_temperature;BME280_humidity;BME280_pressure;Samples;Min_cycle;Max_cycle;Signal;HPM_P1;HPM_P2
2022/10/01 00:01:10;;;;;;;24.73;20.10;;;;;;;;;;4979767;28;20359;-43
2022/10/01 00:03:37;;;;;;;25.90;19.97;;;;;;;;;;4979668;28;20168;-43
2022/10/01 00:06:03;;;;;;;34.93;23.50;;;;;;;;;;4979529;28;20179;-42
2022/10/01 00:08:29;;;;;;;26.17;22.00;;;;;;;;;;4983686;28;20169;-42
2022/10/01 00:10:56;;;;;;;24.57;19.77;;;;;;;;;;4985066;28;20176;-45
2022/10/01 00:13:23;;;;;;;36.10;25.43;;;;;;;;;;4983990;28;20195;-42
2022/10/01 00:15:49;;;;;;;35.20;24.40;;;;;;;;;;5014470;28;20181;-42
2022/10/01 00:18:15;;;;;;;29.47;22.30;;;;;;;;;;4980409;28;21480;-43
2022/10/01 00:20:42;;;;;;;30.60;24.40;;;;;;;;;;4982320;28;20204;-43
2022/10/01 00:23:11;;;;;;;22.67;19.97;;;;;;;;;;4981868;28;20264;-42
2022/10/01 00:25:37;;;;;;;39.50;28.13;;;;;;;;;;4984320;28;20433;-43
2022/10/01 00:28:03;;;;;;;26.67;21.87;;;;;;;;;;4982644;28;20192;-43
2022/10/01 00:30:30;;;;;;;26.57;22.40;;;;;;;;;;4981756;28;20382;-42
2022/10/01 00:32:56;;;;;;;34.60;26.00;;;;;;;;;;4979471;28;20185;-42
2022/10/01 00:35:22;;;;;;;36.40;28.17;;;;;;;;;;4985246;28;20184;-43
2022/10/01 00:37:52;;;;;;;37.70;30.37;;;;;;;;;;4980393;28;20188;-43
2022/10/01 00:40:19;;;;;;;25.90;22.37;;;;;;;;;;4978827;28;20966;-43
2022/10/01 00:42:45;;;;;;;25.93;21.80;;;;;;;;;;4980692;28;20617;-43
2022/10/01 00:45:13;;;;;;;22.83;20.50;;;;;;;;;;4985455;28;20173;-43
2022/10/01 00:47:49;;;;;;;24.70;22.07;;;;;;;;;;4983982;28;20247;-43
2022/10/01 00:50:21;;;;;;;23.67;21.07;;;;;;;;;;4980781;28;20199;-42
2022/10/01 00:52:50;;;;;;;25.50;19.80;;;;;;;;;;4979485;28;20184;-43
2022/10/01 00:55:20;;;;;;;25.10;21.40;;;;;;;;;;4981790;28;20326;-43
2022/10/01 00:57:46;;;;;;;26.50;20.43;;;;;;;;;;4984659;28;20264;-43
2022/10/01 01:00:13;;;;;;;24.67;19.47;;;;;;;;;;4982848;28;20205;-43
2022/10/01 01:02:40;;;;;;;23.90;19.07;;;;;;;;;;4974901;28;20181;-43
2022/10/01 01:05:07;;;;;;;20.20;17.87;;;;;;;;;;4979162;28;20663;-45
2022/10/01 01:07:34;;;;;;;22.20;18.77;;;;;;;;;;4980926;28;20365;-43
2022/10/01 01:10:01;;;;;;;18.13;16.33;;;;;;;;;;4985372;28;20181;-43
2022/10/01 01:12:40;;;;;;;17.90;16.00;;;;;;;;;;4984802;28;21079;-43
2022/10/01 01:15:15;;;;;;;22.73;19.30;;;;;;;;;;4980398;28;20506;-43
2022/10/01 01:17:41;;;;;;;19.40;15.47;;;;;;;;;;4980659;28;20191;-43
2022/10/01 01:20:10;;;;;;;20.03;15.53;;;;;;;;;;4990765;28;20216;-42
2022/10/01 01:22:37;;;;;;;21.17;16.00;;;;;;;;;;4985099;28;20968;-44
2022/10/01 01:25:09;;;;;;;19.27;14.87;;;;;;;;;;4982171;28;20895;-44
2022/10/01 01:27:41;;;;;;;17.43;14.10;;;;;;;;;;4982481;28;20529;-44
2022/10/01 01:30:10;;;;;;;16.97;13.20;;;;;;;;;;4985973;28;20296;-43
2022/10/01 01:32:45;;;;;;;15.33;13.10;;;;;;;;;;4982334;28;20219;-43
2022/10/01 01:35:15;;;;;;;14.13;12.20;;;;;;;;;;4985296;28;20215;-43
2022/10/01 01:37:44;;;;;;;14.47;12.97;;;;;;;;;;4982165;28;21086;-43
2022/10/01 01:40:12;;;;;;;13.77;10.87;;;;;;;;;;4982895;28;20247;-43
2022/10/01 01:42:40;;;;;;;14.80;11.63;;;;;;;;;;4978416;28;20491;-43
2022/10/01 01:45:09;;;;;;;12.17;10.83;;;;;;;;;;4985432;28;20207;-43
2022/10/01 01:47:37;;;;;;;15.07;11.77;;;;;;;;;;4984475;28;20198;-43
2022/10/01 01:50:04;;;;;;;12.13;10.40;;;;;;;;;;4985606;28;20183;-43
2022/10/01 01:52:32;;;;;;;9.60;8.63;;;;;;;;;;4980660;28;21541;-43
2022/10/01 01:54:58;;;;;;;10.50;9.00;;;;;;;;;;4982053;28;20181;-43
2022/10/01 01:57:25;;;;;;;10.17;8.43;;;;;;;;;;4982513;28;20204;-43
2022/10/01 01:59:53;;;;;;;8.63;7.80;;;;;;;;;;4983416;28;20716;-43
2022/10/01 02:02:22;;;;;;;10.13;7.47;;;;;;;;;;4982640;28;20737;-43
2022/10/01 02:04:53;;;;;;;10.43;8.70;;;;;;;;;;4985894;28;20395;-43
2022/10/01 02:07:22;;;;;;;9.93;7.93;;;;;;;;;;4982686;28;20212;-43
2022/10/01 02:09:48;;;;;;;11.63;8.60;;;;;;;;;;4982819;28;20394;-43
2022/10/01 02:12:20;;;;;;;8.53;7.73;;;;;;;;;;4981033;28;20181;-42
2022/10/01 02:15:10;;;;;;;11.70;9.03;;;;;;;;;;4984764;28;20484;-42
2022/10/01 02:17:36;;;;;;;8.53;7.50;;;;;;;;;;4993114;28;20203;-42
2022/10/01 02:20:07;;;;;;;8.13;7.33;;;;;;;;;;4984304;28;20232;-43
2022/10/01 02:22:43;;;;;;;9.17;7.43;;;;;;;;;;4981805;28;20479;-42
2022/10/01 02:25:10;;;;;;;9.10;7.30;;;;;;;;;;4981342;28;20286;-43
2022/10/01 02:27:40;;;;;;;9.03;6.40;;;;;;;;;;4980965;28;20320;-43
2022/10/01 02:30:07;;;;;;;8.43;7.63;;;;;;;;;;4983858;28;20819;-43
2022/10/01 02:32:34;;;;;;;8.50;7.60;;;;;;;;;;4983536;28;20191;-43
2022/10/01 02:35:01;;;;;;;11.47;7.10;;;;;;;;;;4985774;28;20748;-41
2022/10/01 02:37:28;;;;;;;9.30;6.60;;;;;;;;;;4983210;28;20185;-43
2022/10/01 02:39:55;;;;;;;10.77;7.20;;;;;;;;;;4980804;28;20209;-43
2022/10/01 02:42:22;;;;;;;9.33;7.37;;;;;;;;;;4982382;28;20951;-43
2022/10/01 02:44:50;;;;;;;8.87;7.87;;;;;;;;;;4983527;28;20177;-43
2022/10/01 02:47:33;;;;;;;10.53;9.40;;;;;;;;;;4986031;28;20647;-43
2022/10/01 02:50:00;;;;;;;13.33;9.60;;;;;;;;;;4981901;28;20200;-43
2022/10/01 02:52:36;;;;;;;17.47;11.90;;;;;;;;;;4980254;28;20191;-43
2022/10/01 02:55:04;;;;;;;13.20;10.97;;;;;;;;;;4981287;28;20229;-43
2022/10/01 02:57:31;;;;;;;17.83;11.73;;;;;;;;;;4984983;28;20298;-43
2022/10/01 03:00:02;;;;;;;29.17;20.17;;;;;;;;;;4981971;28;20622;-43
2022/10/01 03:02:30;;;;;;;37.97;23.97;;;;;;;;;;4980626;28;20181;-43
2022/10/01 03:04:56;;;;;;;39.27;25.33;;;;;;;;;;4979162;28;20200;-43
2022/10/01 03:07:23;;;;;;;39.63;23.47;;;;;;;;;;4983656;28;21089;-42
2022/10/01 03:09:49;;;;;;;40.47;26.50;;;;;;;;;;4985424;28;20924;-42
2022/10/01 03:12:16;;;;;;;36.00;25.93;;;;;;;;;;4982441;28;20193;-43
2022/10/01 03:14:43;;;;;;;42.93;29.03;;;;;;;;;;4982057;28;20184;-44
2022/10/01 03:17:10;;;;;;;50.17;33.70;;;;;;;;;;4977485;28;20198;-42
2022/10/01 03:19:36;;;;;;;46.23;30.50;;;;;;;;;;4984643;28;20354;-42
2022/10/01 03:22:02;;;;;;;37.40;26.90;;;;;;;;;;4982963;28;20337;-42
2022/10/01 03:24:28;;;;;;;44.43;28.13;;;;;;;;;;4984357;28;20176;-42
2022/10/01 03:26:57;;;;;;;46.00;28.77;;;;;;;;;;4981831;28;20529;-42
2022/10/01 03:29:24;;;;;;;36.23;25.53;;;;;;;;;;4981717;28;21002;-43
2022/10/01 03:31:51;;;;;;;35.17;25.07;;;;;;;;;;4976671;28;20541;-43
2022/10/01 03:34:17;;;;;;;33.53;23.70;;;;;;;;;;4982494;28;20189;-43
2022/10/01 03:36:43;;;;;;;40.40;27.53;;;;;;;;;;4983026;28;20342;-43
2022/10/01 03:39:09;;;;;;;38.00;27.23;;;;;;;;;;4982124;28;20555;-43
2022/10/01 03:41:36;;;;;;;55.20;37.17;;;;;;;;;;4979512;28;20189;-42
2022/10/01 03:44:02;;;;;;;51.47;34.30;;;;;;;;;;4980339;28;20177;-42
2022/10/01 03:46:29;;;;;;;45.97;35.33;;;;;;;;;;4981051;28;21988;-42
2022/10/01 03:48:56;;;;;;;68.13;46.73;;;;;;;;;;4983138;28;20727;-42
2022/10/01 03:51:22;;;;;;;60.97;43.87;;;;;;;;;;4976059;28;20180;-45
2022/10/01 03:53:49;;;;;;;57.77;39.63;;;;;;;;;;4981208;28;20177;-43
2022/10/01 03:56:15;;;;;;;55.77;40.77;;;;;;;;;;4981498;28;20181;-43
2022/10/01 03:58:41;;;;;;;58.13;42.93;;;;;;;;;;4983298;28;20833;-43
2022/10/01 04:01:07;;;;;;;64.00;45.07;;;;;;;;;;4976944;28;20211;-43
2022/10/01 04:03:33;;;;;;;58.73;41.00;;;;;;;;;;4979888;28;20292;-43
2022/10/01 04:06:00;;;;;;;56.50;38.53;;;;;;;;;;4980721;28;20430;-42
2022/10/01 04:08:26;;;;;;;56.60;37.63;;;;;;;;;;4984352;28;20569;-43
2022/10/01 04:10:52;;;;;;;50.00;32.53;;;;;;;;;;4979905;28;20177;-42
2022/10/01 04:13:18;;;;;;;48.43;32.10;;;;;;;;;;4984957;28;20624;-42
2022/10/01 04:15:44;;;;;;;45.00;28.80;;;;;;;;;;4979701;28;20220;-42
2022/10/01 04:18:11;;;;;;;50.67;31.70;;;;;;;;;;4979296;28;20192;-42
2022/10/01 04:20:37;;;;;;;49.03;27.47;;;;;;;;;;4984726;28;20201;-42
2022/10/01 04:23:04;;;;;;;38.70;25.13;;;;;;;;;;4982114;28;20177;-42
2022/10/01 04:25:31;;;;;;;34.03;21.73;;;;;;;;;;4977341;28;20459;-42
2022/10/01 04:27:57;;;;;;;31.87;19.83;;;;;;;;;;4981272;28;20767;-42
2022/10/01 04:30:23;;;;;;;38.43;22.97;;;;;;;;;;4981212;28;20182;-42
2022/10/01 04:32:49;;;;;;;40.67;23.70;;;;;;;;;;4980374;28;20821;-41
2022/10/01 04:35:16;;;;;;;37.77;22.20;;;;;;;;;;4983384;28;20192;-42
2022/10/01 04:37:42;;;;;;;34.97;21.30;;;;;;;;;;4978929;28;20602;-42
2022/10/01 04:40:09;;;;;;;34.63;21.70;;;;;;;;;;4976939;28;20487;-41
2022/10/01 04:42:38;;;;;;;34.27;22.63;;;;;;;;;;4984804;28;20529;-42
2022/10/01 04:45:04;;;;;;;34.33;21.87;;;;;;;;;;4990401;28;20397;-42
2022/10/01 04:47:30;;;;;;;34.77;22.43;;;;;;;;;;4988366;28;20744;-42
2022/10/01 04:49:56;;;;;;;32.07;20.90;;;;;;;;;;4988715;28;20212;-42
2022/10/01 04:52:22;;;;;;;36.13;21.57;;;;;;;;;;4989017;28;20188;-42
2022/10/01 04:54:51;;;;;;;41.23;26.10;;;;;;;;;;4993884;28;20740;-42
2022/10/01 04:57:19;;;;;;;37.57;23.30;;;;;;;;;;4990747;28;20185;-42
2022/10/01 04:59:45;;;;;;;36.67;24.20;;;;;;;;;;4990658;28;20415;-42
2022/10/01 05:02:12;;;;;;;41.07;26.87;;;;;;;;;;4986162;28;20647;-42
2022/10/01 05:04:38;;;;;;;38.97;25.57;;;;;;;;;;4992603;28;20192;-42
2022/10/01 05:07:04;;;;;;;39.23;25.30;;;;;;;;;;4990020;28;20742;-42
2022/10/01 05:09:30;;;;;;;39.07;25.80;;;;;;;;;;4987922;28;20250;-41
2022/10/01 05:11:56;;;;;;;35.17;23.53;;;;;;;;;;4986171;28;20530;-41
2022/10/01 05:14:23;;;;;;;36.20;23.13;;;;;;;;;;4990232;28;20173;-45
2022/10/01 05:16:49;;;;;;;36.30;22.93;;;;;;;;;;4990663;28;20173;-44
2022/10/01 05:19:16;;;;;;;39.30;24.67;;;;;;;;;;4989011;28;20654;-42
2022/10/01 05:21:42;;;;;;;37.63;23.43;;;;;;;;;;4986241;28;20185;-42
2022/10/01 05:24:08;;;;;;;33.33;20.97;;;;;;;;;;4986082;28;20173;-42
2022/10/01 05:26:37;;;;;;;42.17;26.33;;;;;;;;;;4985133;28;20699;-42
2022/10/01 05:29:03;;;;;;;36.47;24.87;;;;;;;;;;4986058;28;20185;-42
2022/10/01 05:31:30;;;;;;;33.30;22.43;;;;;;;;;;4985546;28;20954;-41
2022/10/01 05:33:56;;;;;;;38.03;24.50;;;;;;;;;;4987524;28;20188;-41
2022/10/01 05:36:22;;;;;;;38.07;25.33;;;;;;;;;;4992316;28;20231;-42
2022/10/01 05:38:48;;;;;;;35.37;22.47;;;;;;;;;;4989489;28;20697;-41
2022/10/01 05:41:15;;;;;;;35.97;24.00;;;;;;;;;;4986229;28;20201;-41
2022/10/01 05:43:42;;;;;;;32.60;21.23;;;;;;;;;;4985355;28;20685;-42
2022/10/01 05:46:09;;;;;;;32.20;22.80;;;;;;;;;;4988990;28;20490;-42
2022/10/01 05:48:36;;;;;;;37.63;24.67;;;;;;;;;;4989222;28;20584;-42
2022/10/01 05:51:05;;;;;;;36.90;24.70;;;;;;;;;;4985289;28;20625;-42
2022/10/01 05:53:31;;;;;;;34.03;19.67;;;;;;;;;;4986778;28;20188;-42
2022/10/01 05:56:01;;;;;;;39.87;26.60;;;;;;;;;;4986784;28;20177;-42
2022/10/01 05:58:28;;;;;;;36.50;25.73;;;;;;;;;;4986474;28;20188;-42
2022/10/01 06:00:55;;;;;;;44.63;29.13;;;;;;;;;;4987396;28;20290;-42
2022/10/01 06:03:21;;;;;;;47.47;34.53;;;;;;;;;;4988366;28;20177;-42
2022/10/01 06:05:47;;;;;;;43.13;32.23;;;;;;;;;;4988903;28;20182;-42
2022/10/01 06:08:13;;;;;;;43.07;31.13;;;;;;;;;;4987281;28;20737;-45
2022/10/01 06:10:40;;;;;;;48.27;33.47;;;;;;;;;;4987677;28;20555;-45
2022/10/01 06:13:06;;;;;;;50.23;33.13;;;;;;;;;;4989273;28;20367;-41
2022/10/01 06:15:36;;;;;;;41.30;29.33;;;;;;;;;;4988658;28;20284;-42
2022/10/01 06:18:03;;;;;;;49.10;32.93;;;;;;;;;;4987702;28;20177;-40
2022/10/01 06:20:30;;;;;;;41.27;29.07;;;;;;;;;;4987340;28;20290;-41
2022/10/01 06:22:56;;;;;;;48.27;33.87;;;;;;;;;;4988839;28;20309;-43
2022/10/01 06:25:23;;;;;;;46.80;33.97;;;;;;;;;;4991355;28;20173;-42
2022/10/01 06:27:54;;;;;;;44.43;31.20;;;;;;;;;;4987088;28;20757;-42
2022/10/01 06:30:20;;;;;;;36.57;27.33;;;;;;;;;;4987008;28;20224;-43
2022/10/01 06:32:46;;;;;;;46.17;31.30;;;;;;;;;;4985383;28;20433;-43
2022/10/01 06:35:13;;;;;;;45.03;31.07;;;;;;;;;;4988500;28;20189;-42
2022/10/01 06:37:39;;;;;;;43.07;29.50;;;;;;;;;;4991574;28;20943;-42
2022/10/01 06:40:06;;;;;;;40.07;28.03;;;;;;;;;;4989212;28;20204;-42
2022/10/01 06:42:32;;;;;;;37.90;27.20;;;;;;;;;;4988294;28;20194;-42
2022/10/01 06:44:58;;;;;;;44.23;31.03;;;;;;;;;;4987001;28;20366;-42
2022/10/01 06:47:24;;;;;;;45.93;33.17;;;;;;;;;;4989329;28;20202;-42
2022/10/01 06:49:50;;;;;;;45.90;33.20;;;;;;;;;;4989372;28;20223;-43
2022/10/01 06:55:01;;;;;;;39.30;27.60;;;;;;;;;;4988710;28;20219;-41
2022/10/01 06:57:28;;;;;;;46.97;33.60;;;;;;;;;;4984935;28;20611;-41
2022/10/01 06:59:54;;;;;;;41.80;30.43;;;;;;;;;;4987089;28;20288;-43
2022/10/01 07:02:27;;;;;;;41.80;30.73;;;;;;;;;;4985857;28;21085;-43
2022/10/01 07:04:57;;;;;;;36.03;26.50;;;;;;;;;;4990110;28;20372;-43
2022/10/01 07:07:24;;;;;;;35.17;25.60;;;;;;;;;;4993316;28;20518;-43
2022/10/01 07:09:50;;;;;;;31.37;23.83;;;;;;;;;;4986721;28;20188;-41
2022/10/01 07:12:16;;;;;;;36.37;27.33;;;;;;;;;;4987026;28;21045;-43
2022/10/01 07:14:42;;;;;;;34.93;24.27;;;;;;;;;;4990773;28;20736;-43
2022/10/01 07:17:08;;;;;;;31.80;22.97;;;;;;;;;;4987705;28;20280;-43
2022/10/01 07:19:34;;;;;;;28.73;21.20;;;;;;;;;;4990139;28;20283;-43
2022/10/01 07:22:00;;;;;;;23.77;18.57;;;;;;;;;;4992131;28;20960;-43
2022/10/01 07:24:27;;;;;;;24.53;18.43;;;;;;;;;;4984436;28;20591;-43
2022/10/01 07:26:54;;;;;;;25.67;18.00;;;;;;;;;;4984064;28;20821;-42
2022/10/01 07:29:22;;;;;;;24.27;16.70;;;;;;;;;;4990155;28;20201;-44
2022/10/01 07:31:48;;;;;;;23.47;16.40;;;;;;;;;;4988842;28;20176;-44
2022/10/01 07:34:14;;;;;;;22.73;16.13;;;;;;;;;;4983770;28;20216;-44
2022/10/01 07:36:44;;;;;;;20.20;14.27;;;;;;;;;;4984397;28;20204;-44
2022/10/01 07:39:10;;;;;;;20.83;14.07;;;;;;;;;;4989599;28;20329;-44
2022/10/01 07:41:36;;;;;;;18.90;13.53;;;;;;;;;;4993303;28;20765;-45
2022/10/01 07:44:02;;;;;;;22.73;15.20;;;;;;;;;;4988158;28;20441;-45
2022/10/01 07:46:29;;;;;;;21.07;15.17;;;;;;;;;;4988160;28;20203;-45
2022/10/01 07:48:55;;;;;;;20.67;15.40;;;;;;;;;;4985570;28;20200;-44
2022/10/01 07:51:21;;;;;;;19.87;15.10;;;;;;;;;;4987180;28;20320;-44
2022/10/01 07:53:47;;;;;;;17.37;13.93;;;;;;;;;;4984693;28;20181;-44
2022/10/01 07:56:13;;;;;;;16.63;12.50;;;;;;;;;;4991340;28;20347;-45
2022/10/01 07:58:40;;;;;;;12.60;10.60;;;;;;;;;;4988166;28;20184;-44
2022/10/01 08:01:06;;;;;;;12.67;10.27;;;;;;;;;;4984910;28;20201;-44
2022/10/01 08:03:32;;;;;;;16.57;10.47;;;;;;;;;;4984559;28;20869;-44
2022/10/01 08:05:59;;;;;;;14.50;10.87;;;;;;;;;;4987868;28;20177;-44
2022/10/01 08:08:25;;;;;;;12.23;10.00;;;;;;;;;;4987529;28;20559;-44
2022/10/01 08:10:51;;;;;;;10.67;9.57;;;;;;;;;;4989438;28;20975;-44
2022/10/01 08:13:17;;;;;;;12.73;9.30;;;;;;;;;;4983269;28;20292;-43
2022/10/01 08:15:44;;;;;;;12.93;9.10;;;;;;;;;;4989664;28;20320;-43
2022/10/01 08:18:11;;;;;;;12.67;9.47;;;;;;;;;;4993699;28;20608;-43
2022/10/01 08:20:38;;;;;;;11.00;8.90;;;;;;;;;;4990415;28;20235;-43
2022/10/01 08:23:09;;;;;;;12.83;9.37;;;;;;;;;;4985639;28;20279;-43
2022/10/01 08:25:35;;;;;;;12.03;9.57;;;;;;;;;;4988856;28;20436;-43
2022/10/01 08:28:02;;;;;;;10.80;9.30;;;;;;;;;;4991638;28;20641;-43
2022/10/01 08:30:28;;;;;;;12.33;9.90;;;;;;;;;;4992253;28;20243;-44
2022/10/01 08:32:58;;;;;;;10.70;8.57;;;;;;;;;;4984532;28;20176;-43
2022/10/01 08:35:25;;;;;;;12.50;9.47;;;;;;;;;;4990926;28;20727;-43
2022/10/01 08:37:51;;;;;;;14.10;10.20;;;;;;;;;;4990854;28;20513;-43
2022/10/01 08:40:18;;;;;;;12.70;10.30;;;;;;;;;;4988008;28;20209;-44
2022/10/01 08:42:47;;;;;;;11.50;9.63;;;;;;;;;;4986175;28;20617;-44
2022/10/01 08:45:19;;;;;;;12.57;9.37;;;;;;;;;;4990132;28;20256;-43
2022/10/01 08:48:00;;;;;;;10.77;8.87;;;;;;;;;;4992628;28;20189;-44
2022/10/01 08:50:46;;;;;;;11.93;9.40;;;;;;;;;;4990050;28;20705;-44
2022/10/01 08:53:16;;;;;;;11.90;8.97;;;;;;;;;;4982159;28;20565;-43
2022/10/01 08:55:43;;;;;;;13.03;9.63;;;;;;;;;;4983527;28;20192;-44
2022/10/01 08:58:12;;;;;;;10.60;9.20;;;;;;;;;;4985608;28;20463;-43
2022/10/01 09:00:43;;;;;;;12.13;9.20;;;;;;;;;;4988297;28;20311;-43
2022/10/01 09:03:11;;;;;;;10.70;9.33;;;;;;;;;;4990553;28;20177;-42
2022/10/01 09:05:47;;;;;;;11.07;8.63;;;;;;;;;;4985704;28;20196;-42
2022/10/01 09:08:42;;;;;;;10.87;8.83;;;;;;;;;;4985346;28;20180;-43
2022/10/01 09:11:15;;;;;;;11.07;9.53;;;;;;;;;;4991478;28;20192;-44
2022/10/01 09:13:50;;;;;;;11.40;9.03;;;;;;;;;;4987236;28;21083;-44
2022/10/01 09:16:35;;;;;;;11.03;9.23;;;;;;;;;;4988425;28;21137;-44
2022/10/01 09:19:21;;;;;;;9.83;8.80;;;;;;;;;;4977433;28;20896;-44
2022/10/01 09:21:50;;;;;;;12.03;9.77;;;;;;;;;;4984606;28;21018;-44
2022/10/01 09:24:24;;;;;;;12.27;9.40;;;;;;;;;;5016438;28;20816;-44
2022/10/01 09:26:50;;;;;;;10.07;8.97;;;;;;;;;;4989911;28;20197;-43
2022/10/01 09:29:24;;;;;;;11.33;9.33;;;;;;;;;;4986890;28;20254;-44
2022/10/01 09:31:52;;;;;;;10.63;9.53;;;;;;;;;;4988509;28;20184;-44
2022/10/01 09:34:32;;;;;;;9.77;8.77;;;;;;;;;;4987544;28;21016;-43
2022/10/01 09:37:09;;;;;;;10.87;9.40;;;;;;;;;;4988239;28;20181;-44
2022/10/01 09:39:46;;;;;;;11.40;10.20;;;;;;;;;;4985980;28;20263;-44
2022/10/01 09:42:12;;;;;;;9.60;8.50;;;;;;;;;;4989298;28;20177;-44
2022/10/01 09:44:38;;;;;;;8.57;7.67;;;;;;;;;;4988140;28;20177;-44
2022/10/01 09:47:15;;;;;;;13.30;8.90;;;;;;;;;;4990867;28;21027;-44
2022/10/01 09:49:45;;;;;;;10.67;9.33;;;;;;;;;;4989424;28;20224;-44
2022/10/01 09:52:18;;;;;;;11.33;8.73;;;;;;;;;;4988938;28;20184;-44
2022/10/01 09:54:54;;;;;;;10.23;9.13;;;;;;;;;;4987231;28;20177;-42
2022/10/01 09:57:24;;;;;;;11.23;8.80;;;;;;;;;;4989887;28;20189;-43
2022/10/01 09:59:54;;;;;;;11.63;9.07;;;;;;;;;;4993589;28;20982;-45
2022/10/01 10:02:29;;;;;;;10.67;8.60;;;;;;;;;;4993279;28;20215;-43
2022/10/01 10:05:04;;;;;;;9.67;8.30;;;;;;;;;;4990553;28;20165;-44
2022/10/01 10:07:33;;;;;;;12.13;9.37;;;;;;;;;;4989967;28;20183;-42
2022/10/01 10:10:29;;;;;;;9.90;8.37;;;;;;;;;;4985892;28;20173;-42
2022/10/01 10:13:06;;;;;;;11.33;9.07;;;;;;;;;;4986741;28;20191;-43
2022/10/01 10:15:32;;;;;;;11.53;8.87;;;;;;;;;;4990633;28;20169;-43
2022/10/01 10:18:11;;;;;;;12.33;8.77;;;;;;;;;;4989891;28;20177;-43
2022/10/01 10:20:39;;;;;;;10.70;8.83;;;;;;;;;;4986703;28;20315;-43
2022/10/01 10:23:06;;;;;;;11.27;9.43;;;;;;;;;;4990469;28;20177;-43
2022/10/01 10:25:33;;;;;;;9.97;8.27;;;;;;;;;;4987812;28;20173;-43
2022/10/01 10:28:01;;;;;;;10.00;7.43;;;;;;;;;;4986697;28;20186;-44
2022/10/01 10:30:27;;;;;;;13.40;9.40;;;;;;;;;;4983440;28;20291;-44
2022/10/01 10:33:01;;;;;;;10.33;8.93;;;;;;;;;;4987279;28;20173;-44
2022/10/01 10:35:27;;;;;;;10.93;8.33;;;;;;;;;;4988262;28;20258;-43
2022/10/01 10:37:56;;;;;;;11.20;9.33;;;;;;;;;;4990207;28;20196;-43
2022/10/01 10:40:24;;;;;;;9.53;8.63;;;;;;;;;;4987557;28;20201;-44
2022/10/01 10:42:51;;;;;;;9.83;8.47;;;;;;;;;;4987702;28;20250;-44
2022/10/01 10:45:21;;;;;;;8.90;6.97;;;;;;;;;;4983778;28;20173;-42
2022/10/01 10:47:52;;;;;;;10.67;8.70;;;;;;;;;;4986867;28;20291;-43
2022/10/01 10:50:28;;;;;;;11.37;8.97;;;;;;;;;;4989109;28;20181;-45
2022/10/01 10:52:55;;;;;;;10.73;8.73;;;;;;;;;;4988168;28;20204;-44
2022/10/01 10:55:24;;;;;;;10.70;9.00;;;;;;;;;;4990679;28;20178;-44
2022/10/01 10:57:51;;;;;;;9.57;8.57;;;;;;;;;;4987851;28;20180;-44
2022/10/01 11:00:22;;;;;;;9.80;8.63;;;;;;;;;;4984267;28;20279;-44
2022/10/01 11:02:51;;;;;;;9.10;7.77;;;;;;;;;;4984515;28;20172;-44
2022/10/01 11:05:22;;;;;;;10.50;8.53;;;;;;;;;;4987960;28;20178;-44
2022/10/01 11:07:50;;;;;;;11.27;8.43;;;;;;;;;;4988011;28;20200;-44
2022/10/01 11:10:40;;;;;;;8.57;7.60;;;;;;;;;;4984615;28;21292;-43
2022/10/01 11:13:13;;;;;;;9.70;7.67;;;;;;;;;;4987083;28;20897;-44
2022/10/01 11:15:48;;;;;;;11.60;7.87;;;;;;;;;;4989074;28;20355;-43
2022/10/01 11:18:26;;;;;;;10.17;7.43;;;;;;;;;;4990361;28;20183;-44
2022/10/01 11:21:02;;;;;;;6.93;5.83;;;;;;;;;;4986928;28;20193;-44
2022/10/01 11:23:36;;;;;;;7.63;6.83;;;;;;;;;;4986925;28;20917;-44
2022/10/01 11:26:16;;;;;;;8.47;7.47;;;;;;;;;;4984825;28;20201;-44
2022/10/01 11:29:07;;;;;;;9.83;7.20;;;;;;;;;;4988301;28;20679;-44
2022/10/01 11:31:33;;;;;;;9.53;7.33;;;;;;;;;;4988869;28;20184;-43
2022/10/01 11:34:18;;;;;;;7.90;5.50;;;;;;;;;;4987078;28;20189;-44
2022/10/01 11:36:59;;;;;;;8.83;6.67;;;;;;;;;;4984717;28;20180;-41
2022/10/01 11:39:27;;;;;;;8.23;6.03;;;;;;;;;;4988809;28;20184;-44
2022/10/01 11:41:56;;;;;;;7.60;6.00;;;;;;;;;;5005172;28;20281;-44
2022/10/01 11:44:25;;;;;;;8.13;5.50;;;;;;;;;;4990221;28;20196;-44
2022/10/01 11:46:57;;;;;;;6.87;5.57;;;;;;;;;;4986459;28;20168;-44
2022/10/01 11:49:40;;;;;;;5.23;4.73;;;;;;;;;;4985159;28;20172;-44
2022/10/01 11:52:36;;;;;;;7.33;5.90;;;;;;;;;;4991574;28;20169;-44
2022/10/01 12:00:53;;;;;;;8.77;5.63;;;;;;;;;;4986372;28;20208;-43
2022/10/01 12:03:23;;;;;;;7.37;5.70;;;;;;;;;;4989602;28;20263;-44
2022/10/01 12:05:49;;;;;;;11.37;6.50;;;;;;;;;;4987118;28;20184;-43
2022/10/01 12:08:20;;;;;;;8.77;6.73;;;;;;;;;;4990715;28;20214;-43
2022/10/01 12:10:49;;;;;;;8.67;6.50;;;;;;;;;;4987993;28;21314;-43
2022/10/01 12:13:15;;;;;;;7.73;6.27;;;;;;;;;;4990964;28;20228;-44
2022/10/01 12:16:00;;;;;;;6.93;5.63;;;;;;;;;;4984830;28;20180;-44
2022/10/01 12:18:27;;;;;;;7.13;5.27;;;;;;;;;;4990993;28;20184;-44
2022/10/01 12:20:55;;;;;;;6.43;5.20;;;;;;;;;;4990840;28;21072;-44
2022/10/01 12:23:26;;;;;;;6.60;5.90;;;;;;;;;;4985717;28;20173;-43
2022/10/01 12:25:53;;;;;;;7.13;5.70;;;;;;;;;;4978119;28;20176;-43
2022/10/01 12:28:22;;;;;;;6.77;4.70;;;;;;;;;;4989089;28;20185;-44
2022/10/01 12:30:52;;;;;;;7.13;5.37;;;;;;;;;;4989101;28;20247;-44
2022/10/01 12:33:34;;;;;;;7.37;5.67;;;;;;;;;;4994641;28;20256;-42
2022/10/01 12:36:03;;;;;;;7.37;6.67;;;;;;;;;;4981558;28;20177;-43
2022/10/01 12:38:29;;;;;;;8.20;6.67;;;;;;;;;;4984674;28;20181;-44
2022/10/01 12:40:55;;;;;;;7.47;5.93;;;;;;;;;;4991841;28;20200;-44
2022/10/01 12:43:38;;;;;;;7.23;5.83;;;;;;;;;;4991028;28;20170;-43
2022/10/01 12:46:11;;;;;;;9.67;6.30;;;;;;;;;;4985800;28;20169;-44
2022/10/01 12:48:53;;;;;;;6.63;5.93;;;;;;;;;;4985252;28;20173;-44
2022/10/01 12:51:38;;;;;;;8.93;6.33;;;;;;;;;;4987424;28;20177;-44
2022/10/01 12:54:23;;;;;;;6.47;5.10;;;;;;;;;;4987226;28;20174;-43
2022/10/01 12:56:54;;;;;;;6.83;5.53;;;;;;;;;;4986652;28;20957;-43
2022/10/01 12:59:29;;;;;;;7.07;6.20;;;;;;;;;;4992577;28;21069;-43
2022/10/01 13:01:59;;;;;;;9.73;7.77;;;;;;;;;;4990395;28;20267;-42
2022/10/01 13:04:34;;;;;;;9.40;7.13;;;;;;;;;;4988083;28;20223;-43
2022/10/01 13:07:19;;;;;;;11.73;7.90;;;;;;;;;;4989181;28;20176;-41
2022/10/01 13:10:13;;;;;;;8.40;7.10;;;;;;;;;;4986640;28;20168;-43
2022/10/01 13:12:51;;;;;;;10.70;7.17;;;;;;;;;;4991366;28;20177;-45
2022/10/01 13:15:20;;;;;;;9.03;7.20;;;;;;;;;;4990315;28;20188;-42
2022/10/01 13:17:54;;;;;;;9.83;7.47;;;;;;;;;;4990046;28;20176;-43
2022/10/01 13:20:29;;;;;;;8.97;7.13;;;;;;;;;;4989888;28;21121;-42
2022/10/01 13:23:01;;;;;;;9.30;7.80;;;;;;;;;;4990524;28;20181;-43
2022/10/01 13:25:30;;;;;;;10.03;8.87;;;;;;;;;;4990787;28;20173;-43
2022/10/01 13:28:00;;;;;;;15.10;7.47;;;;;;;;;;4986990;28;20184;-43
2022/10/01 13:30:27;;;;;;;9.40;7.50;;;;;;;;;;4984669;28;20177;-43
2022/10/01 13:33:00;;;;;;;8.83;7.80;;;;;;;;;;4982981;28;20181;-44
2022/10/01 13:35:27;;;;;;;11.07;7.47;;;;;;;;;;4987774;28;20179;-43
2022/10/01 13:37:54;;;;;;;8.77;7.70;;;;;;;;;;4987006;28;20187;-44
2022/10/01 13:40:20;;;;;;;9.97;7.97;;;;;;;;;;4991352;28;20763;-44
2022/10/01 13:42:47;;;;;;;10.93;8.47;;;;;;;;;;4985723;28;20937;-44
2022/10/01 13:45:25;;;;;;;9.90;7.30;;;;;;;;;;4988141;28;20256;-44
2022/10/01 13:47:51;;;;;;;10.47;8.47;;;;;;;;;;4990518;28;20180;-44
2022/10/01 13:50:20;;;;;;;13.50;7.90;;;;;;;;;;4991888;28;20249;-44
2022/10/01 13:52:46;;;;;;;11.57;8.50;;;;;;;;;;4986153;28;20254;-44
2022/10/01 13:55:25;;;;;;;11.40;8.83;;;;;;;;;;4982319;28;20189;-44
2022/10/01 13:58:01;;;;;;;12.63;8.27;;;;;;;;;;4977499;28;20172;-44
2022/10/01 14:00:27;;;;;;;10.63;7.57;;;;;;;;;;4981633;28;20203;-44
2022/10/01 14:03:04;;;;;;;9.40;8.40;;;;;;;;;;4981221;28;20169;-44
2022/10/01 14:05:39;;;;;;;8.80;7.77;;;;;;;;;;4980990;28;20183;-44
2022/10/01 14:08:14;;;;;;;7.97;6.90;;;;;;;;;;4978231;28;20182;-44
2022/10/01 14:16:16;;;;;;;5.77;5.17;;;;;;;;;;4981534;28;20292;-43
2022/10/01 14:18:43;;;;;;;6.03;4.73;;;;;;;;;;4978069;28;21129;-44
2022/10/01 14:21:28;;;;;;;6.90;5.33;;;;;;;;;;4979779;28;20212;-43
2022/10/01 14:24:12;;;;;;;6.77;5.73;;;;;;;;;;4981679;28;21077;-43
2022/10/01 14:26:47;;;;;;;10.27;5.90;;;;;;;;;;4977871;28;20184;-43
2022/10/01 14:29:13;;;;;;;13.10;8.23;;;;;;;;;;4980946;28;20315;-44
2022/10/01 14:31:39;;;;;;;8.03;6.20;;;;;;;;;;4978151;28;20185;-43
2022/10/01 14:34:05;;;;;;;8.93;7.00;;;;;;;;;;4982176;28;20173;-43
2022/10/01 14:36:33;;;;;;;14.93;8.77;;;;;;;;;;4981158;28;20188;-43
2022/10/01 14:39:19;;;;;;;25.83;14.33;;;;;;;;;;4985805;28;20185;-43
2022/10/01 14:41:48;;;;;;;11.57;8.43;;;;;;;;;;4989052;28;20208;-43
2022/10/01 14:44:22;;;;;;;11.63;8.70;;;;;;;;;;4991473;28;20986;-42
2022/10/01 14:46:49;;;;;;;8.47;7.47;;;;;;;;;;4990194;28;20191;-42
2022/10/01 14:49:32;;;;;;;10.50;8.50;;;;;;;;;;4989389;28;20173;-42
2022/10/01 14:52:00;;;;;;;10.97;8.97;;;;;;;;;;4991233;28;20184;-44
2022/10/01 14:54:27;;;;;;;12.57;9.47;;;;;;;;;;4993147;28;20910;-44